PWSweather.com
Personal Weather Stations
Station Observations
KCTHAMDEN
Dunbar Hill, Hamden, CT 06514

Dunbar HillHamden, CT 06514

Lat: 41.365437, Lon: -72.956532

Elevation: 200

Station Type: Davis Vantage Pro2+

www.hamdenweather.com

High Low Average
Temperature 78.9°F26.1°C 65.6°F18.7°C 70.7°F21.5°C
Dew Point 67.1°F19.5°C 58.7°F14.8°C 63.1°F17.3°C
Winds 5.6 mph 9.0 kmh Calm Calm 2.0 mph SE3.2 kmh SE
Wind Gusts 12.0 mph19.3 kmh -- 5.0 mph8.0 kmh
Humidity 92% 54% 78%
Pressure 30.11 in1019.6 mb 29.86 in1011.2 mb -
Precipitation 0.00 in0.0 mm - -
Hour Temp Dew Point Humidity Winds Wind Gusts Pressure Precip Precip Rate Daily Precip Total
12:00 AM 68.3°F20.2°C 65.9°F18.8°C 92% 2.3 mph WSW3.7 kmh WSW 6.0 mph9.7 kmh 29.85 in1010.8 mb - 0.00 in0.0 mm 0.00 in0.0 mm
12:15 AM 68.3°F20.2°C 65.9°F18.8°C 92% 3.3 mph WSW5.3 kmh WSW 5.0 mph8.0 kmh 29.86 in1011.2 mb - 0.00 in0.0 mm 0.00 in0.0 mm
12:30 AM 68.3°F20.2°C 65.9°F18.8°C 92% 1.6 mph ENE2.6 kmh ENE 4.0 mph6.4 kmh 29.86 in1011.2 mb - 0.00 in0.0 mm 0.00 in0.0 mm
12:45 AM 68.3°F20.2°C 65.5°F18.6°C 91% 1.7 mph N2.7 kmh N 8.0 mph12.9 kmh 29.86 in1011.2 mb - 0.00 in0.0 mm 0.00 in0.0 mm
01:00 AM 68.3°F20.2°C 65.6°F18.7°C 91% 2.5 mph NW4.0 kmh NW 4.0 mph6.4 kmh 29.86 in1011.2 mb - 0.00 in0.0 mm 0.00 in0.0 mm
01:15 AM 68.4°F20.2°C 65.7°F18.7°C 91% 1.0 mph WSW1.6 kmh WSW 9.0 mph14.5 kmh 29.86 in1011.2 mb - 0.00 in0.0 mm 0.00 in0.0 mm
01:30 AM 68.5°F20.3°C 65.8°F18.8°C 91% 0.6 mph NNE1.0 kmh NNE 2.0 mph3.2 kmh 29.87 in1011.5 mb - 0.00 in0.0 mm 0.00 in0.0 mm
01:45 AM 68.5°F20.3°C 65.8°F18.8°C 91% 3.1 mph WSW5.0 kmh WSW 4.0 mph6.4 kmh 29.87 in1011.5 mb - 0.00 in0.0 mm 0.00 in0.0 mm
02:00 AM 68.5°F20.3°C 65.8°F18.8°C 91% 2.3 mph WSW3.7 kmh WSW 5.0 mph8.0 kmh 29.87 in1011.5 mb - 0.00 in0.0 mm 0.00 in0.0 mm
02:15 AM 68.4°F20.2°C 65.7°F18.7°C 91% 0.2 mph N0.3 kmh N 6.0 mph9.7 kmh 29.87 in1011.5 mb - 0.00 in0.0 mm 0.00 in0.0 mm
02:30 AM 68.4°F20.2°C 65.7°F18.7°C 91% 0.8 mph WSW1.3 kmh WSW 2.0 mph3.2 kmh 29.87 in1011.5 mb - 0.00 in0.0 mm 0.00 in0.0 mm
02:45 AM 68.3°F20.2°C 65.9°F18.8°C 92% 1.2 mph ENE1.9 kmh ENE 7.0 mph11.3 kmh 29.88 in1011.9 mb - 0.00 in0.0 mm 0.00 in0.0 mm
03:00 AM 68.3°F20.2°C 65.9°F18.8°C 92% 1.3 mph NE2.1 kmh NE 3.0 mph4.8 kmh 29.88 in1011.9 mb - 0.00 in0.0 mm 0.00 in0.0 mm
03:15 AM 68.2°F20.1°C 65.8°F18.8°C 92% 2.5 mph NNE4.0 kmh NNE 4.0 mph6.4 kmh 29.88 in1011.9 mb - 0.00 in0.0 mm 0.00 in0.0 mm
03:30 AM 68.1°F20.1°C 65.4°F18.6°C 91% 4.0 mph ENE6.4 kmh ENE 10.0 mph16.1 kmh 29.89 in1012.2 mb - 0.00 in0.0 mm 0.00 in0.0 mm
03:45 AM 68.1°F20.1°C 65.1°F18.4°C 90% 1.6 mph ESE2.6 kmh ESE 7.0 mph11.3 kmh 29.89 in1012.2 mb - 0.00 in0.0 mm 0.00 in0.0 mm
04:00 AM 68.1°F20.1°C 64.7°F18.2°C 89% 0.9 mph ENE1.4 kmh ENE 5.0 mph8.0 kmh 29.89 in1012.2 mb - 0.00 in0.0 mm 0.00 in0.0 mm
04:15 AM 68.1°F20.1°C 64.7°F18.2°C 89% 2.8 mph S4.5 kmh S 9.0 mph14.5 kmh 29.89 in1012.2 mb - 0.00 in0.0 mm 0.00 in0.0 mm
04:30 AM 68.0°F20.0°C 64.3°F17.9°C 88% 3.3 mph W5.3 kmh W 6.0 mph9.7 kmh 29.90 in1012.5 mb - 0.00 in0.0 mm 0.00 in0.0 mm
04:45 AM 67.9°F19.9°C 64.5°F18.1°C 89% 1.8 mph WSW2.9 kmh WSW 7.0 mph11.3 kmh 29.90 in1012.5 mb - 0.00 in0.0 mm 0.00 in0.0 mm
05:00 AM 67.8°F19.9°C 64.8°F18.2°C 90% 3.2 mph E5.1 kmh E 4.0 mph6.4 kmh 29.91 in1012.9 mb - 0.00 in0.0 mm 0.00 in0.0 mm
05:15 AM 67.7°F19.8°C 64.7°F18.2°C 90% 0.1 mph WSW0.2 kmh WSW 1.0 mph1.6 kmh 29.90 in1012.5 mb - 0.00 in0.0 mm 0.00 in0.0 mm
05:30 AM 67.5°F19.7°C 64.8°F18.2°C 91% 2.1 mph W3.4 kmh W 4.0 mph6.4 kmh 29.91 in1012.9 mb - 0.00 in0.0 mm 0.00 in0.0 mm
05:45 AM 67.1°F19.5°C 64.7°F18.2°C 92% 1.5 mph ENE2.4 kmh ENE 5.0 mph8.0 kmh 29.92 in1013.2 mb - 0.00 in0.0 mm 0.00 in0.0 mm
06:00 AM 66.7°F19.3°C 64.0°F17.8°C 91% 1.4 mph SW2.3 kmh SW 3.0 mph4.8 kmh 29.92 in1013.2 mb - 0.00 in0.0 mm 0.00 in0.0 mm
06:15 AM 66.6°F19.2°C 63.6°F17.6°C 90% 1.0 mph NE1.6 kmh NE 4.0 mph6.4 kmh 29.92 in1013.2 mb - 0.00 in0.0 mm 0.00 in0.0 mm
06:30 AM 66.5°F19.2°C 63.5°F17.5°C 90% 3.7 mph NE6.0 kmh NE 4.0 mph6.4 kmh 29.93 in1013.5 mb - 0.00 in0.0 mm 0.00 in0.0 mm
06:45 AM 66.5°F19.2°C 63.5°F17.5°C 90% 2.5 mph WSW4.0 kmh WSW 4.0 mph6.4 kmh 29.94 in1013.9 mb - 0.00 in0.0 mm 0.00 in0.0 mm
07:00 AM 66.4°F19.1°C 63.7°F17.6°C 91% 0.8 mph WNW1.3 kmh WNW 1.0 mph1.6 kmh 29.94 in1013.9 mb - 0.00 in0.0 mm 0.00 in0.0 mm
07:15 AM 66.4°F19.1°C 63.7°F17.6°C 91% 2.0 mph NW3.2 kmh NW 3.0 mph4.8 kmh 29.94 in1013.9 mb - 0.00 in0.0 mm 0.00 in0.0 mm
07:30 AM 66.4°F19.1°C 63.7°F17.6°C 91% 1.5 mph WSW2.4 kmh WSW 5.0 mph8.0 kmh 29.95 in1014.2 mb - 0.00 in0.0 mm 0.00 in0.0 mm
07:45 AM 66.6°F19.2°C 63.9°F17.7°C 91% 2.0 mph SW3.2 kmh SW 4.0 mph6.4 kmh 29.95 in1014.2 mb - 0.00 in0.0 mm 0.00 in0.0 mm
08:00 AM 66.8°F19.3°C 63.8°F17.7°C 90% 3.5 mph N5.6 kmh N 7.0 mph11.3 kmh 29.96 in1014.6 mb - 0.00 in0.0 mm 0.00 in0.0 mm
08:15 AM 67.1°F19.5°C 63.7°F17.6°C 89% 2.2 mph NNE3.5 kmh NNE 2.0 mph3.2 kmh 29.96 in1014.6 mb - 0.00 in0.0 mm 0.00 in0.0 mm
08:30 AM 67.6°F19.8°C 63.6°F17.6°C 87% 4.2 mph SW6.8 kmh SW 10.0 mph16.1 kmh 29.97 in1014.9 mb - 0.00 in0.0 mm 0.00 in0.0 mm
08:45 AM 67.9°F19.9°C 63.6°F17.6°C 86% 3.6 mph NNE5.8 kmh NNE 8.0 mph12.9 kmh 29.97 in1014.9 mb - 0.00 in0.0 mm 0.00 in0.0 mm
09:00 AM 68.3°F20.2°C 63.9°F17.7°C 86% 2.8 mph E4.5 kmh E 3.0 mph4.8 kmh 29.97 in1014.9 mb - 0.00 in0.0 mm 0.00 in0.0 mm
09:15 AM 68.8°F20.4°C 64.5°F18.1°C 86% 0.8 mph E1.3 kmh E 3.0 mph4.8 kmh 29.97 in1014.9 mb - 0.00 in0.0 mm 0.00 in0.0 mm
09:30 AM 69.2°F20.7°C 64.5°F18.1°C 85% 1.9 mph NE3.1 kmh NE 6.0 mph9.7 kmh 29.97 in1014.9 mb - 0.00 in0.0 mm 0.00 in0.0 mm
09:45 AM 70.0°F21.1°C 64.6°F18.1°C 83% 2.6 mph E4.2 kmh E 7.0 mph11.3 kmh 29.98 in1015.2 mb - 0.00 in0.0 mm 0.00 in0.0 mm
10:00 AM 70.9°F21.6°C 64.0°F17.8°C 79% 5.6 mph NE9.0 kmh NE 12.0 mph19.3 kmh 29.99 in1015.6 mb - 0.00 in0.0 mm 0.00 in0.0 mm
10:15 AM 71.5°F21.9°C 64.3°F17.9°C 78% 3.8 mph NW6.1 kmh NW 8.0 mph12.9 kmh 29.99 in1015.6 mb - 0.00 in0.0 mm 0.00 in0.0 mm
10:30 AM 71.9°F22.2°C 64.3°F17.9°C 77% 4.5 mph SSE7.2 kmh SSE 10.0 mph16.1 kmh 30.00 in1015.9 mb - 0.00 in0.0 mm 0.00 in0.0 mm
10:45 AM 72.6°F22.6°C 64.6°F18.1°C 76% 4.4 mph S7.1 kmh S 10.0 mph16.1 kmh 29.99 in1015.6 mb - 0.00 in0.0 mm 0.00 in0.0 mm
11:00 AM 72.9°F22.7°C 64.1°F17.8°C 74% 4.7 mph SSW7.6 kmh SSW 9.0 mph14.5 kmh 30.00 in1015.9 mb - 0.00 in0.0 mm 0.00 in0.0 mm
11:15 AM 73.6°F23.1°C 65.2°F18.4°C 75% 3.5 mph E5.6 kmh E 10.0 mph16.1 kmh 30.00 in1015.9 mb - 0.00 in0.0 mm 0.00 in0.0 mm
11:30 AM 74.2°F23.4°C 64.6°F18.1°C 72% 5.5 mph W8.9 kmh W 10.0 mph16.1 kmh 30.00 in1015.9 mb - 0.00 in0.0 mm 0.00 in0.0 mm
11:45 AM 73.5°F23.1°C 64.7°F18.2°C 74% 3.0 mph NE4.8 kmh NE 7.0 mph11.3 kmh 30.00 in1015.9 mb - 0.00 in0.0 mm 0.00 in0.0 mm
12:00 PM 73.4°F23.0°C 65.0°F18.3°C 75% 1.4 mph NE2.3 kmh NE 5.0 mph8.0 kmh 30.00 in1015.9 mb - 0.00 in0.0 mm 0.00 in0.0 mm
12:15 PM 73.5°F23.1°C 64.7°F18.2°C 74% 4.5 mph ENE7.2 kmh ENE 9.0 mph14.5 kmh 30.00 in1015.9 mb - 0.00 in0.0 mm 0.00 in0.0 mm
12:30 PM 73.7°F23.2°C 64.1°F17.8°C 72% 1.1 mph WSW1.8 kmh WSW 6.0 mph9.7 kmh 29.99 in1015.6 mb - 0.00 in0.0 mm 0.00 in0.0 mm
12:45 PM 74.5°F23.6°C 65.3°F18.5°C 73% 2.8 mph ESE4.5 kmh ESE 6.0 mph9.7 kmh 29.99 in1015.6 mb - 0.00 in0.0 mm 0.00 in0.0 mm
01:00 PM 75.0°F23.9°C 64.5°F18.1°C 70% 1.7 mph N2.7 kmh N 4.0 mph6.4 kmh 29.99 in1015.6 mb - 0.00 in0.0 mm 0.00 in0.0 mm
01:15 PM 75.7°F24.3°C 65.6°F18.7°C 71% 2.4 mph NE3.9 kmh NE 5.0 mph8.0 kmh 29.99 in1015.6 mb - 0.00 in0.0 mm 0.00 in0.0 mm
01:30 PM 76.1°F24.5°C 66.0°F18.9°C 71% 1.8 mph NE2.9 kmh NE 5.0 mph8.0 kmh 29.99 in1015.6 mb - 0.00 in0.0 mm 0.00 in0.0 mm
01:45 PM 76.6°F24.8°C 64.8°F18.2°C 67% 2.6 mph W4.2 kmh W 7.0 mph11.3 kmh 30.00 in1015.9 mb - 0.00 in0.0 mm 0.00 in0.0 mm
02:00 PM 76.6°F24.8°C 63.9°F17.7°C 65% 3.5 mph ENE5.6 kmh ENE 7.0 mph11.3 kmh 30.00 in1015.9 mb - 0.00 in0.0 mm 0.00 in0.0 mm
02:15 PM 77.5°F25.3°C 66.5°F19.2°C 69% 1.8 mph ENE2.9 kmh ENE 4.0 mph6.4 kmh 30.00 in1015.9 mb - 0.00 in0.0 mm 0.00 in0.0 mm
02:30 PM 78.0°F25.6°C 65.3°F18.5°C 65% 3.3 mph SW5.3 kmh SW 7.0 mph11.3 kmh 30.00 in1015.9 mb - 0.00 in0.0 mm 0.00 in0.0 mm
02:45 PM 78.6°F25.9°C 67.1°F19.5°C 68% 0.6 mph NE1.0 kmh NE 1.0 mph1.6 kmh 29.99 in1015.6 mb - 0.00 in0.0 mm 0.00 in0.0 mm
03:00 PM 78.9°F26.1°C 64.8°F18.2°C 62% 4.1 mph E6.6 kmh E 9.0 mph14.5 kmh 29.99 in1015.6 mb - 0.00 in0.0 mm 0.00 in0.0 mm
03:15 PM 78.7°F25.9°C 63.6°F17.6°C 60% 1.4 mph NE2.3 kmh NE 7.0 mph11.3 kmh 29.99 in1015.6 mb - 0.00 in0.0 mm 0.00 in0.0 mm
03:30 PM 78.6°F25.9°C 63.1°F17.3°C 59% 3.0 mph E4.8 kmh E 8.0 mph12.9 kmh 30.00 in1015.9 mb - 0.00 in0.0 mm 0.00 in0.0 mm
03:45 PM 78.2°F25.7°C 63.2°F17.3°C 60% 0.5 mph ENE0.8 kmh ENE 2.0 mph3.2 kmh 29.99 in1015.6 mb - 0.00 in0.0 mm 0.00 in0.0 mm
04:00 PM 78.1°F25.6°C 63.6°F17.6°C 61% 3.0 mph NE4.8 kmh NE 3.0 mph4.8 kmh 30.00 in1015.9 mb - 0.00 in0.0 mm 0.00 in0.0 mm
04:15 PM 78.0°F25.6°C 63.0°F17.2°C 60% 2.7 mph E4.3 kmh E 3.0 mph4.8 kmh 30.00 in1015.9 mb - 0.00 in0.0 mm 0.00 in0.0 mm
04:30 PM 77.8°F25.4°C 60.8°F16.0°C 56% 1.2 mph NE1.9 kmh NE 9.0 mph14.5 kmh 30.00 in1015.9 mb - 0.00 in0.0 mm 0.00 in0.0 mm
04:45 PM 77.1°F25.1°C 59.2°F15.1°C 54% 3.3 mph ENE5.3 kmh ENE 5.0 mph8.0 kmh 30.01 in1016.3 mb - 0.00 in0.0 mm 0.00 in0.0 mm
05:00 PM 76.6°F24.8°C 58.7°F14.8°C 54% 3.0 mph NE4.8 kmh NE 4.0 mph6.4 kmh 30.01 in1016.3 mb - 0.00 in0.0 mm 0.00 in0.0 mm
05:15 PM 75.6°F24.2°C 58.8°F14.9°C 56% 1.4 mph SSE2.3 kmh SSE 2.0 mph3.2 kmh 30.01 in1016.3 mb - 0.00 in0.0 mm 0.00 in0.0 mm
05:30 PM 75.1°F23.9°C 61.6°F16.4°C 63% Calm Calm -- 30.02 in1016.6 mb - 0.00 in0.0 mm 0.00 in0.0 mm
05:45 PM 74.2°F23.4°C 59.4°F15.2°C 60% 2.6 mph ENE4.2 kmh ENE 3.0 mph4.8 kmh 30.02 in1016.6 mb - 0.00 in0.0 mm 0.00 in0.0 mm
06:00 PM 73.9°F23.3°C 59.1°F15.1°C 60% 2.1 mph E3.4 kmh E 6.0 mph9.7 kmh 30.03 in1016.9 mb - 0.00 in0.0 mm 0.00 in0.0 mm
06:15 PM 73.7°F23.2°C 58.9°F14.9°C 60% 0.2 mph SE0.3 kmh SE 1.0 mph1.6 kmh 30.03 in1016.9 mb - 0.00 in0.0 mm 0.00 in0.0 mm
06:30 PM 73.3°F22.9°C 60.4°F15.8°C 64% 1.6 mph SE2.6 kmh SE 3.0 mph4.8 kmh 30.03 in1016.9 mb - 0.00 in0.0 mm 0.00 in0.0 mm
06:45 PM 72.9°F22.7°C 61.7°F16.5°C 68% 1.8 mph SE2.9 kmh SE 3.0 mph4.8 kmh 30.04 in1017.3 mb - 0.00 in0.0 mm 0.00 in0.0 mm
07:00 PM 72.3°F22.4°C 61.6°F16.4°C 69% Calm Calm -- 30.05 in1017.6 mb - 0.00 in0.0 mm 0.00 in0.0 mm
07:15 PM 71.5°F21.9°C 62.0°F16.7°C 72% 0.1 mph SE0.2 kmh SE -- 30.05 in1017.6 mb - 0.00 in0.0 mm 0.00 in0.0 mm
07:30 PM 70.9°F21.6°C 62.9°F17.2°C 76% Calm Calm 2.0 mph3.2 kmh 30.06 in1017.9 mb - 0.00 in0.0 mm 0.00 in0.0 mm
07:45 PM 69.9°F21.1°C 60.1°F15.6°C 71% 1.7 mph NE2.7 kmh NE 4.0 mph6.4 kmh 30.06 in1017.9 mb - 0.00 in0.0 mm 0.00 in0.0 mm
08:00 PM 70.0°F21.1°C 60.2°F15.7°C 71% 1.4 mph N2.3 kmh N 4.0 mph6.4 kmh 30.06 in1017.9 mb - 0.00 in0.0 mm 0.00 in0.0 mm
08:15 PM 70.0°F21.1°C 60.1°F15.6°C 71% 0.7 mph NE1.1 kmh NE 2.0 mph3.2 kmh 30.07 in1018.3 mb - 0.00 in0.0 mm 0.00 in0.0 mm
08:30 PM 69.8°F21.0°C 60.0°F15.6°C 71% 2.1 mph ENE3.4 kmh ENE 5.0 mph8.0 kmh 30.07 in1018.3 mb - 0.00 in0.0 mm 0.00 in0.0 mm
08:45 PM 69.6°F20.9°C 60.2°F15.7°C 72% 0.1 mph N0.2 kmh N 2.0 mph3.2 kmh 30.08 in1018.6 mb - 0.00 in0.0 mm 0.00 in0.0 mm
09:00 PM 69.3°F20.7°C 59.9°F15.5°C 72% 0.7 mph NE1.1 kmh NE 2.0 mph3.2 kmh 30.08 in1018.6 mb - 0.00 in0.0 mm 0.00 in0.0 mm
09:15 PM 69.1°F20.6°C 60.4°F15.8°C 74% Calm Calm -- 30.09 in1019.0 mb - 0.00 in0.0 mm 0.00 in0.0 mm
09:30 PM 68.8°F20.4°C 60.9°F16.1°C 76% Calm Calm -- 30.09 in1019.0 mb - 0.00 in0.0 mm 0.00 in0.0 mm
09:45 PM 68.2°F20.1°C 59.9°F15.5°C 75% 0.3 mph NE0.5 kmh NE 2.0 mph3.2 kmh 30.09 in1019.0 mb - 0.00 in0.0 mm 0.00 in0.0 mm
10:00 PM 67.6°F19.8°C 59.8°F15.4°C 76% 1.6 mph NE2.6 kmh NE 3.0 mph4.8 kmh 30.09 in1019.0 mb - 0.00 in0.0 mm 0.00 in0.0 mm
10:15 PM 67.2°F19.6°C 60.1°F15.6°C 78% Calm Calm -- 30.09 in1019.0 mb - 0.00 in0.0 mm 0.00 in0.0 mm
10:30 PM 66.6°F19.2°C 60.2°F15.7°C 80% Calm Calm -- 30.10 in1019.3 mb - 0.00 in0.0 mm 0.00 in0.0 mm
10:45 PM 66.0°F18.9°C 59.7°F15.4°C 80% Calm Calm -- 30.10 in1019.3 mb - 0.00 in0.0 mm 0.00 in0.0 mm
11:00 PM 65.6°F18.7°C 59.6°F15.3°C 81% 0.2 mph NNE0.3 kmh NNE 2.0 mph3.2 kmh 30.11 in1019.6 mb - 0.00 in0.0 mm 0.00 in0.0 mm
11:15 PM 65.6°F18.7°C 60.0°F15.6°C 82% 0.1 mph NE0.2 kmh NE 1.0 mph1.6 kmh 30.10 in1019.3 mb - 0.00 in0.0 mm 0.00 in0.0 mm
11:30 PM 65.8°F18.8°C 60.2°F15.7°C 82% Calm Calm -- 30.11 in1019.6 mb - 0.00 in0.0 mm 0.00 in0.0 mm
11:45 PM 66.1°F18.9°C 60.4°F15.8°C 82% 2.4 mph NE3.9 kmh NE 5.0 mph8.0 kmh 30.11 in1019.6 mb - 0.00 in0.0 mm 0.00 in0.0 mm